• Join FlightAware (Why Join?)
  • Login
  • US Flag 
02:10PM EST


 

Airport Tracker/Info


-or-


 

Live Flight TrackerFlight Track Log ✈ UAL3776 ✈ 09-Apr-2013 ✈ KMIA - KIAD

Flight Track Log - Related Links

Times and Time Zones

All times are in EDT time to prevent confusion due to time zone crossing. See the UAL3776 flight status page for this flight to view local times or setup timezone preferences in your user account.

Time Position Orientation Groundspeed Altitude Reporting Facility
EDT Latitude Longitude Course Direction KTS MPH feet Rate Location/Type
11:54AM 25.7983 -80.2722 81° East 147 169 700  Level Miami Center
11:55AM 25.8081 -80.2056 81° East 214 246 2,800 1,980 Climbing Miami Center
11:56AM 25.8408 -80.1442 59° Northeast 265 305 5,200 2,160 Climbing Miami Center
11:57AM 25.9031 -80.1619 346° North 294 338 6,900 1,140 Climbing Miami Center
11:58AM 25.9711 -80.2078 329° Northwest 286 329 7,400 1,380 Climbing Miami Center
11:59AM 26.0347 -80.2489 330° Northwest 302 348 9,700 2,400 Climbing Miami Center
12:00PM 26.1089 -80.2950 331° Northwest 302 348 12,200 2,400 Climbing Miami Center
12:01PM 26.1831 -80.3386 332° Northwest 302 348 14,600 2,280 Climbing Miami Center
12:02PM 26.2572 -80.3825 332° Northwest 302 348 16,800 2,040 Climbing Miami Center
12:03PM 26.3458 -80.4361 332° Northwest 308 354 18,700 1,860 Climbing Miami Center
12:04PM 26.4178 -80.4778 333° Northwest 313 360 20,600 1,800 Climbing Miami Center
12:05PM 26.5106 -80.5294 334° Northwest 328 377 22,400 1,500 Climbing Miami Center
12:06PM 26.5889 -80.5714 334° Northwest 339 390 23,600 1,260 Climbing Miami Center
12:07PM 26.6897 -80.6281 333° Northwest 353 406 25,000 1,260 Climbing Miami Center
12:08PM 26.7761 -80.6772 333° Northwest 367 422 26,200 1,200 Climbing Miami Center
12:09PM 26.8706 -80.7317 333° Northwest 377 434 27,400 1,200 Climbing Miami Center
12:10PM 26.9694 -80.7861 334° Northwest 383 441 28,700 1,260 Climbing Miami Center
12:11PM 27.0703 -80.8361 336° Northwest 388 447 30,000 1,260 Climbing Miami Center
12:12PM 27.1714 -80.8839 337° Northwest 388 447 31,300 1,260 Climbing Miami Center
12:13PM 27.2744 -80.9319 337° Northwest 393 452 32,600 1,320 Climbing Miami Center
12:14PM 27.3736 -80.9706 341° North 388 447 34,000 1,200 Climbing Miami Center
12:15PM 27.4792 -81.0000 346° North 382 440 35,000 960 Climbing Miami Center
12:16PM 27.5806 -81.0317 345° North 377 434 36,000 960 Climbing Miami Center
12:17PM 27.6797 -81.0611 345° North 372 428 37,000 480 Climbing Miami Center
12:18PM 27.7811 -81.0956 343° North 372 428 37,000  Level Miami Center
12:19PM 27.8906 -81.1325 343° North 394 453 37,000  Level Miami Center
12:20PM 28.0128 -81.1628 348° North 401 461 37,100 600 Climbing Miami Center
12:21PM 28.1269 -81.1814 352° North 413 475 38,200 780 Climbing Miami Center
12:22PM 28.2414 -81.1975 353° North 413 475 38,700 360 Climbing Miami Center
12:23PM 28.3431 -81.2133 352° North 408 470 39,000 120 Climbing Miami Center
12:24PM 28.4553 -81.2269 354° North 408 470 39,000  Level Miami Center
12:25PM 28.5756 -81.2472 352° North 412 474 39,000  Level Jacksonville Center
12:26PM 28.6947 -81.2642 353° North 423 487 39,000  Level Jacksonville Center
12:27PM 28.8139 -81.2836 352° North 429 494 39,000  Level Jacksonville Center
12:28PM 28.9331 -81.2983 354° North 429 494 39,000  Level Jacksonville Center
12:29PM 29.0544 -81.3178 352° North 429 494 39,000  Level Jacksonville Center
12:30PM 29.1736 -81.3372 352° North 429 494 39,000  Level Jacksonville Center
12:31PM 29.2928 -81.3497 355° North 429 494 39,000  Level Jacksonville Center
12:32PM 29.4139 -81.3692 352° North 429 494 39,000  Level Jacksonville Center
12:33PM 29.5311 -81.3889 352° North 429 494 39,000  Level Jacksonville Center
12:34PM 29.6525 -81.4014 355° North 429 494 39,000  Level Jacksonville Center
12:35PM 29.7775 -81.3922 North 429 494 39,000  Level Jacksonville Center
12:36PM 29.9006 -81.3808 North 434 499 39,000  Level Jacksonville Center
12:37PM 30.0236 -81.3717 North 440 506 39,000  Level Jacksonville Center
12:38PM 30.1489 -81.3625 North 440 506 39,000  Level Jacksonville Center
12:39PM 30.2719 -81.3508 North 440 506 39,000  Level Jacksonville Center
12:40PM 30.3969 -81.3392 North 440 506 39,000  Level Jacksonville Center
12:41PM 30.5200 -81.3325 North 440 506 39,000  Level Jacksonville Center
12:42PM 30.6453 -81.3206 North 440 506 39,000  Level Jacksonville Center
12:43PM 30.7683 -81.3139 North 440 506 39,000  Level Jacksonville Center
12:44PM 30.8892 -81.3022 North 440 506 39,000  Level Jacksonville Center
12:45PM 31.0144 -81.2928 North 440 506 39,000  Level Jacksonville Center
12:46PM 31.1375 -81.2808 North 440 506 39,000  Level Jacksonville Center
12:47PM 31.2625 -81.2739 North 447 514 39,000  Level Jacksonville Center
12:48PM 31.3711 -81.2647 North 430 495 39,000  Level Jacksonville Center
12:49PM 31.5067 -81.2528 North 435 501 39,000  Level Jacksonville Center
12:50PM 31.6317 -81.2406 North 449 517 39,000  Level Jacksonville Center
12:51PM 31.7403 -81.2339 North 449 517 39,000  Level Jacksonville Center
12:52PM 31.8758 -81.2217 North 443 510 39,000  Level Jacksonville Center
12:53PM 31.9906 -81.2147 North 443 510 39,000  Level Jacksonville Center
12:54PM 32.1156 -81.2000 North 443 510 39,000  Level Jacksonville Center
12:55PM 32.2317 -81.1389 24° Northeast 443 510 39,000  Level Jacksonville Center
12:56PM 32.3556 -81.0506 31° Northeast 453 521 39,000  Level Jacksonville Center
12:57PM 32.4547 -80.9772 32° Northeast 461 531 39,000  Level Jacksonville Center
12:58PM 32.5642 -80.8983 31° Northeast 461 531 39,000  Level Jacksonville Center
12:59PM 32.6756 -80.8169 32° Northeast 461 531 39,000  Level Jacksonville Center
01:00PM 32.7828 -80.7406 31° Northeast 461 531 39,000  Level Jacksonville Center
01:01PM 32.8964 -80.6586 31° Northeast 467 537 39,000  Level Jacksonville Center
01:02PM 33.0075 -80.5764 32° Northeast 467 537 39,000  Level Jacksonville Center
01:03PM 33.1186 -80.4967 31° Northeast 467 537 39,000  Level Jacksonville Center
01:04PM 33.2339 -80.4142 31° Northeast 467 537 39,000  Level Jacksonville Center
01:05PM 33.3553 -80.3239 32° Northeast 467 537 39,000  Level Jacksonville Center
01:06PM 33.4664 -80.2408 32° Northeast 467 537 39,000  Level Jacksonville Center
01:07PM 33.5731 -80.1581 33° Northeast 467 537 39,000  Level Jacksonville Center
01:08PM 33.6839 -80.0747 32° Northeast 467 537 39,000  Level Jacksonville Center
01:09PM 33.7928 -79.9936 32° Northeast 467 537 39,000  Level Jacksonville Center
01:11PM 33.9769 -79.8539 32° Northeast 465 535 39,000  Level Washington Center
01:12PM 34.0842 -79.7692 33° Northeast 465 535 39,000  Level Washington Center
01:13PM 34.1956 -79.6894 31° Northeast 465 535 39,000  Level Washington Center
01:14PM 34.3106 -79.6172 27° Northeast 465 535 39,000  Level Washington Center
01:15PM 34.4275 -79.5575 23° Northeast 453 521 39,000  Level Washington Center
01:16PM 34.5442 -79.4975 23° Northeast 453 521 39,000 -360 Level Washington Center
01:17PM 34.6611 -79.4325 25° Northeast 448 516 38,300 -960 Descending Washington Center
01:18PM 34.7839 -79.3700 23° Northeast 455 524 37,100 -1,080 Descending Washington Center
01:19PM 34.9072 -79.3022 24° Northeast 466 536 36,200 -1,200 Descending Washington Center
01:20PM 35.0281 -79.2394 23° Northeast 466 536 34,700 -1,500 Descending Washington Center
01:21PM 35.1531 -79.1739 23° Northeast 466 536 33,200 -1,500 Descending Washington Center
01:22PM 35.2761 -79.1081 24° Northeast 466 536 31,700 -1,140 Descending Washington Center
01:23PM 35.4011 -79.0447 22° Northeast 466 536 31,000 -360 Descending Washington Center
01:24PM 35.5197 -78.9811 24° Northeast 466 536 31,000 -360 Level Washington Center
01:25PM 35.6406 -78.9147 24° Northeast 461 531 30,300 -1,200 Descending Washington Center
01:26PM 35.7614 -78.8481 24° Northeast 461 531 28,700 -1,560 Descending Washington Center
01:27PM 35.8883 -78.7789 24° Northeast 461 531 27,200 -900 Descending Washington Center
01:28PM 36.0028 -78.7142 25° Northeast 451 519 27,000 -120 Descending Washington Center
01:29PM 36.1128 -78.6517 25° Northeast 438 504 27,000  Level Washington Center
01:30PM 36.2208 -78.5889 25° Northeast 433 498 27,000  Level Washington Center
01:31PM 36.3331 -78.5236 25° Northeast 433 498 27,000  Level Washington Center
01:32PM 36.4472 -78.4633 23° Northeast 433 498 27,000  Level Washington Center
01:33PM 36.5592 -78.3975 25° Northeast 433 498 27,000  Level Washington Center
01:34PM 36.6694 -78.3317 26° Northeast 433 498 27,000 -480 Level Washington Center
01:35PM 36.7667 -78.2728 26° Northeast 428 493 26,100 -1,020 Descending Washington Center
01:36PM 36.8806 -78.2092 24° Northeast 433 498 25,000 -600 Descending Washington Center
01:37PM 36.9906 -78.1428 26° Northeast 433 498 25,000 -780 Level Washington Center
01:38PM 37.1067 -78.0789 24° Northeast 433 498 23,500 -1,500 Descending Washington Center
01:39PM 37.2208 -78.0097 26° Northeast 439 505 22,100 -780 Descending Washington Center
01:40PM 37.3325 -77.9453 25° Northeast 444 511 22,000 -60 Descending Washington Center
01:41PM 37.4422 -77.8806 25° Northeast 444 511 22,000  Level Washington Center
01:42PM 37.5497 -77.8183 25° Northeast 434 499 22,000 -480 Level Washington Center
01:43PM 37.6575 -77.7533 26° Northeast 429 494 21,100 -1,800 Descending Washington Center
01:44PM 37.7669 -77.6881 25° Northeast 429 494 18,500 -2,460 Descending Washington Center
01:45PM 37.8722 -77.6278 24° Northeast 423 487 16,200 -2,400 Descending Washington Center
01:46PM 37.9714 -77.5700 25° Northeast 409 471 13,700 -2,820 Descending Washington Center
01:47PM 38.0725 -77.5094 25° Northeast 373 429 10,600 -1,860 Descending Washington Center
01:48PM 38.1631 -77.4508 27° Northeast 363 418 10,000 -300 Descending Washington Center
01:49PM 38.2367 -77.4106 23° Northeast 300 345 10,000 -60 Level Washington Center
01:50PM 38.3161 -77.3858 14° North 295 339 9,900 -960 Descending Washington Center
01:51PM 38.3889 -77.4142 343° North 273 314 8,100 -1,860 Descending Washington Center
01:52PM 38.4633 -77.4400 345° North 268 308 6,200 -1,920 Descending Washington Center
01:53PM 38.5428 -77.4392 360° North 275 316 4,300 -1,140 Descending Washington Center
01:54PM 38.6178 -77.4411 359° North 270 311 4,000 -240 Descending Washington Center
01:54PM 38.6500 -77.4500 348° North 268 308 4,000  Level Potomac TRACON
01:55PM 38.7167 -77.4667 349° North 263 303 4,000 -540 Level Potomac TRACON
01:56PM 38.7833 -77.4667 360° North 259 298 3,000 -960 Descending Potomac TRACON
01:57PM 38.8333 -77.4667 360° North 208 239 2,200 -900 Descending Potomac TRACON
01:58PM 38.8833 -77.4667 360° North 141 162 1,300 -840 Descending Potomac TRACON
01:59PM 38.9333 -77.4667 360° North 145 167 600 -720 Descending Potomac TRACON
02:01PM 38.9474 -77.4599 191° South  Level Estimated
02:08PM 38.9474 -77.4599 191° South  Level Estimated
02:09PM 38.9474 -77.4599 191° South  Level Estimated
02:10PM 38.9474 -77.4599 191° South  Level Estimated